Time;durP1;ratioP1;P1;durP2;ratioP2;P2;SDS_P1;SDS_P2;PMS_P1;PMS_P2;Temp;Humidity;BMP_temperature;BMP_pressure;BME280_temperature;BME280_humidity;BME280_pressure;Samples;Min_cycle;Max_cycle;Signal;HPM_P1;HPM_P2
2022/11/29 00:01:19;;;;;;;242.75;24.73;;;8.00;99.90;;;;;;4925118;28;20051;-64
2022/11/29 00:03:45;;;;;;;327.55;28.55;;;8.00;99.90;;;;;;4923417;28;20194;-64
2022/11/29 00:06:14;;;;;;;134.27;22.20;;;8.00;99.90;;;;;;4942341;28;20490;-64
2022/11/29 00:08:41;;;;;;;101.55;19.73;;;8.00;99.90;;;;;;4914698;28;20608;-63
2022/11/29 00:11:10;;;;;;;71.00;19.48;;;8.00;99.90;;;;;;4926639;28;20130;-64
2022/11/29 00:13:36;;;;;;;64.60;18.92;;;8.00;99.90;;;;;;4912032;28;20036;-64
2022/11/29 00:16:08;;;;;;;85.45;19.58;;;8.00;99.90;;;;;;4927001;28;20063;-64
2022/11/29 00:18:34;;;;;;;60.78;18.50;;;7.90;99.90;;;;;;4926844;28;20992;-64
2022/11/29 00:21:07;;;;;;;91.70;20.00;;;8.00;99.90;;;;;;4912574;28;20411;-64
2022/11/29 00:23:34;;;;;;;;;;;7.90;99.90;;;;;;4922966;28;20494;-64
2022/11/29 00:26:06;;;;;;;69.05;19.30;;;7.90;99.90;;;;;;4930112;28;19937;-65
2022/11/29 00:28:34;;;;;;;65.68;18.60;;;7.90;99.90;;;;;;4922273;28;20062;-65
2022/11/29 00:31:00;;;;;;;70.15;18.08;;;7.90;99.90;;;;;;4926510;28;20048;-64
2022/11/29 00:33:26;;;;;;;62.53;17.98;;;7.90;99.90;;;;;;4940673;28;20063;-63
2022/11/29 00:35:52;;;;;;;136.20;20.05;;;7.90;99.90;;;;;;4940612;28;20415;-65
2022/11/29 00:38:17;;;;;;;78.22;19.00;;;7.90;99.90;;;;;;4927779;28;20074;-64
2022/11/29 00:40:43;;;;;;;127.80;20.42;;;7.90;99.90;;;;;;4927506;28;20047;-65
2022/11/29 00:43:09;;;;;;;187.93;21.20;;;7.80;99.90;;;;;;4934001;28;20098;-64
2022/11/29 00:45:35;;;;;;;83.82;20.42;;;7.90;99.90;;;;;;4926839;28;20091;-65
2022/11/29 00:48:01;;;;;;;51.17;17.90;;;7.80;99.90;;;;;;4926309;28;20058;-64
2022/11/29 00:50:26;;;;;;;103.07;19.58;;;7.80;99.90;;;;;;4919284;28;20067;-63
2022/11/29 00:52:52;;;;;;;93.57;19.02;;;7.80;99.90;;;;;;4893629;29;20795;-63
2022/11/29 00:55:18;;;;;;;178.82;19.42;;;7.80;99.90;;;;;;4893037;29;20055;-63
2022/11/29 00:57:44;;;;;;;80.88;19.08;;;7.80;99.90;;;;;;4888473;29;20058;-63
2022/11/29 01:00:10;;;;;;;126.40;20.45;;;7.80;99.90;;;;;;4899474;29;20056;-64
2022/11/29 01:02:36;;;;;;;48.95;17.60;;;7.70;99.90;;;;;;4870749;29;21081;-64
2022/11/29 01:05:01;;;;;;;59.47;18.02;;;7.70;99.90;;;;;;4903560;29;20055;-64
2022/11/29 01:07:27;;;;;;;228.52;21.23;;;7.70;99.90;;;;;;4889972;29;20119;-63
2022/11/29 01:09:53;;;;;;;196.65;21.65;;;7.70;99.90;;;;;;4892460;29;20040;-64
2022/11/29 01:12:19;;;;;;;150.10;22.63;;;7.70;99.90;;;;;;4901298;29;20087;-64
2022/11/29 01:14:44;;;;;;;92.78;19.85;;;7.70;99.90;;;;;;4881200;29;20090;-64
2022/11/29 01:17:10;;;;;;;40.78;17.45;;;7.70;99.90;;;;;;4891481;29;20118;-65
2022/11/29 01:19:37;;;;;;;72.70;18.70;;;7.70;99.90;;;;;;4895291;29;20600;-64
2022/11/29 01:22:03;;;;;;;173.50;22.80;;;7.70;99.90;;;;;;4890463;29;20051;-64
2022/11/29 01:24:29;;;;;;;125.22;21.08;;;7.70;99.90;;;;;;4890749;29;20052;-63
2022/11/29 01:26:55;;;;;;;115.07;19.65;;;7.70;99.90;;;;;;4891331;29;20197;-63
2022/11/29 01:29:21;;;;;;;155.35;23.17;;;7.70;99.90;;;;;;4889026;29;20184;-63
2022/11/29 01:31:46;;;;;;;87.50;21.15;;;7.70;99.90;;;;;;4891254;29;20123;-64
2022/11/29 01:34:12;;;;;;;70.25;19.15;;;7.70;99.90;;;;;;4876701;29;20529;-63
2022/11/29 01:36:38;;;;;;;90.10;20.25;;;7.70;99.90;;;;;;4891286;29;20455;-65
2022/11/29 01:39:04;;;;;;;103.00;20.98;;;7.70;99.90;;;;;;4875596;29;20051;-63
2022/11/29 01:41:32;;;;;;;61.08;18.55;;;7.70;99.90;;;;;;4890725;29;20047;-64
2022/11/29 01:44:03;;;;;;;114.50;20.25;;;7.70;99.90;;;;;;4888414;29;20121;-64
2022/11/29 01:46:37;;;;;;;129.30;20.45;;;7.70;99.90;;;;;;4889519;29;20054;-63
2022/11/29 01:49:14;;;;;;;42.58;18.42;;;7.70;99.90;;;;;;4905925;29;20123;-63
2022/11/29 01:51:44;;;;;;;62.45;19.60;;;7.70;99.90;;;;;;4919974;28;20526;-64
2022/11/29 01:54:11;;;;;;;63.22;21.30;;;7.70;99.90;;;;;;4926482;28;20044;-64
2022/11/29 01:56:38;;;;;;;90.25;19.05;;;7.50;99.90;;;;;;4922359;28;20127;-65
2022/11/29 01:59:09;;;;;;;169.02;21.83;;;7.70;99.90;;;;;;4925528;28;20146;-65
2022/11/29 02:01:36;;;;;;;65.20;21.85;;;7.70;99.90;;;;;;4924895;28;20054;-64
2022/11/29 02:04:02;;;;;;;155.98;23.80;;;7.70;99.90;;;;;;4925577;28;20075;-64
2022/11/29 02:06:29;;;;;;;70.50;19.85;;;7.60;99.90;;;;;;4925442;28;20047;-64
2022/11/29 02:08:55;;;;;;;105.28;21.95;;;7.60;99.90;;;;;;4919326;28;20043;-63
2022/11/29 02:12:15;;;;;;;79.53;21.33;;;7.60;99.90;;;;;;4921536;28;20055;-65
2022/11/29 02:14:51;;;;;;;106.80;21.98;;;7.70;99.90;;;;;;4847674;29;20052;-64
2022/11/29 02:17:45;;;;;;;113.93;21.40;;;7.60;99.90;;;;;;4914527;28;20062;-65
2022/11/29 02:20:16;;;;;;;;;;;7.60;99.90;;;;;;4922518;28;21650;-65
2022/11/29 02:22:48;;;;;;;45.25;19.50;;;7.60;99.90;;;;;;4903895;28;20353;-64
2022/11/29 02:25:23;;;;;;;92.10;20.63;;;7.50;99.90;;;;;;4906640;28;20849;-65
2022/11/29 02:28:26;;;;;;;44.42;18.83;;;7.50;99.90;;;;;;4921138;28;20055;-64
2022/11/29 02:31:16;;;;;;;54.08;18.17;;;7.60;99.90;;;;;;4919577;28;20521;-65
2022/11/29 02:34:15;;;;;;;57.08;19.02;;;7.50;99.90;;;;;;4921194;28;20062;-65
2022/11/29 02:37:08;;;;;;;38.80;18.33;;;7.50;99.90;;;;;;4926413;28;20051;-64
2022/11/29 02:39:53;;;;;;;;;;;7.50;99.90;;;;;;4922885;28;20044;-64
2022/11/29 02:42:47;;;;;;;64.57;20.92;;;7.50;99.90;;;;;;4905824;28;19967;-64
2022/11/29 02:45:16;;;;;;;43.25;18.45;;;7.40;99.90;;;;;;4919729;28;20130;-63
2022/11/29 02:47:42;;;;;;;77.15;20.90;;;7.40;99.90;;;;;;4909697;28;20219;-64
2022/11/29 02:50:15;;;;;;;52.47;19.85;;;7.40;99.90;;;;;;4916156;28;20157;-64
2022/11/29 02:52:44;;;;;;;67.90;20.80;;;7.40;99.90;;;;;;4887316;29;20529;-64
2022/11/29 02:55:32;;;;;;;44.90;19.33;;;7.40;99.90;;;;;;4888778;29;20178;-63
2022/11/29 02:58:00;;;;;;;38.80;17.05;;;7.40;99.90;;;;;;4885053;29;20553;-64
2022/11/29 03:00:27;;;;;;;55.80;19.90;;;7.40;99.90;;;;;;4896387;29;20055;-64
2022/11/29 03:02:59;;;;;;;39.05;19.15;;;7.40;99.90;;;;;;4901255;29;20167;-65
2022/11/29 03:05:45;;;;;;;35.30;18.23;;;7.40;99.90;;;;;;4880592;29;24245;-64
2022/11/29 03:08:33;;;;;;;41.47;19.08;;;7.40;99.90;;;;;;4870724;29;20161;-64
2022/11/29 03:11:16;;;;;;;40.20;17.70;;;7.30;99.90;;;;;;4873055;29;20051;-64
2022/11/29 03:13:51;;;;;;;43.38;18.58;;;7.30;99.90;;;;;;4885417;29;20060;-65
2022/11/29 03:16:44;;;;;;;41.83;18.90;;;7.30;99.90;;;;;;4886079;29;20052;-64
2022/11/29 03:19:32;;;;;;;41.42;19.05;;;7.30;99.90;;;;;;4888738;29;20048;-64
2022/11/29 03:22:28;;;;;;;84.68;20.88;;;7.30;99.90;;;;;;4889405;29;20146;-64
2022/11/29 03:25:00;;;;;;;37.55;17.90;;;7.30;99.90;;;;;;4889967;29;20062;-64
2022/11/29 03:27:46;;;;;;;43.20;19.20;;;7.30;99.90;;;;;;4888967;29;20822;-64
2022/11/29 03:30:16;;;;;;;43.58;17.95;;;7.30;99.90;;;;;;4893611;29;20048;-64
2022/11/29 03:33:06;;;;;;;48.67;18.92;;;7.20;99.90;;;;;;4891308;29;20063;-65
2022/11/29 03:35:42;;;;;;;70.70;20.90;;;7.30;99.90;;;;;;4891614;29;20103;-64
2022/11/29 03:38:23;;;;;;;52.60;21.52;;;7.20;99.90;;;;;;4884303;29;20242;-64
2022/11/29 03:41:04;;;;;;;62.05;19.80;;;7.20;99.90;;;;;;4904854;29;20048;-64
2022/11/29 03:43:42;;;;;;;50.70;19.25;;;7.20;99.90;;;;;;4895308;29;20051;-64
2022/11/29 03:46:24;;;;;;;41.83;18.27;;;7.20;99.90;;;;;;4896410;29;20079;-64
2022/11/29 03:48:55;;;;;;;58.87;20.00;;;7.20;99.90;;;;;;4877272;29;20055;-63
2022/11/29 03:51:46;;;;;;;47.80;18.55;;;7.10;99.90;;;;;;4892070;29;24149;-63
2022/11/29 03:54:20;;;;;;;39.35;19.83;;;7.20;99.90;;;;;;4854394;29;20138;-64
2022/11/29 03:56:46;;;;;;;76.00;21.67;;;7.20;99.90;;;;;;4888553;29;20059;-65
2022/11/29 03:59:17;;;;;;;69.15;21.30;;;7.10;99.90;;;;;;4896754;29;20058;-65
2022/11/29 04:01:55;;;;;;;51.58;20.27;;;7.10;99.90;;;;;;4904304;29;20048;-64
2022/11/29 04:04:48;;;;;;;49.33;20.65;;;7.10;99.90;;;;;;4899654;29;20059;-63
2022/11/29 04:07:39;;;;;;;77.85;23.40;;;7.10;99.90;;;;;;4901913;29;20110;-64
2022/11/29 04:10:23;;;;;;;35.70;20.02;;;7.10;99.90;;;;;;4874238;29;20518;-63
2022/11/29 04:12:58;;;;;;;111.47;24.73;;;7.10;99.90;;;;;;4899615;29;20046;-64
2022/11/29 04:15:45;;;;;;;34.78;17.60;;;7.10;99.90;;;;;;4895739;29;20114;-63
2022/11/29 04:18:45;;;;;;;29.67;18.13;;;7.10;99.90;;;;;;4891596;29;20103;-64
2022/11/29 04:21:35;;;;;;;34.60;19.35;;;7.00;99.90;;;;;;4878666;29;20055;-64
2022/11/29 04:24:22;;;;;;;46.63;19.10;;;7.10;99.90;;;;;;4894596;29;20135;-64
2022/11/29 04:27:12;;;;;;;42.50;18.33;;;7.00;99.90;;;;;;4891640;29;20479;-64
2022/11/29 04:29:49;;;;;;;62.38;19.92;;;7.00;99.90;;;;;;4880091;29;20082;-64
2022/11/29 04:32:25;;;;;;;79.07;19.77;;;7.00;99.90;;;;;;4892752;29;20048;-63
2022/11/29 04:35:19;;;;;;;99.93;22.00;;;7.00;99.90;;;;;;4879536;29;20052;-63
2022/11/29 04:38:09;;;;;;;48.38;17.60;;;7.00;99.90;;;;;;4888373;29;20050;-64
2022/11/29 04:41:01;;;;;;;35.40;18.48;;;7.00;99.90;;;;;;4903654;29;20126;-64
2022/11/29 04:43:44;;;;;;;39.53;19.02;;;7.00;99.90;;;;;;4893881;29;20079;-64
2022/11/29 04:46:31;;;;;;;60.70;18.45;;;6.90;99.90;;;;;;4876266;29;20437;-64
2022/11/29 04:49:13;;;;;;;72.45;17.60;;;6.90;99.90;;;;;;4867399;29;20134;-64
2022/11/29 04:51:58;;;;;;;60.83;17.73;;;6.90;99.90;;;;;;4911650;28;20063;-65
2022/11/29 04:54:59;;;;;;;39.40;15.95;;;6.90;99.90;;;;;;4922179;28;20055;-64
2022/11/29 04:58:10;;;;;;;27.98;15.02;;;6.90;99.90;;;;;;4922429;28;20105;-64
2022/11/29 05:01:03;;;;;;;31.17;16.02;;;6.90;99.90;;;;;;4923641;28;20055;-63
2022/11/29 05:03:48;;;;;;;28.13;16.75;;;6.90;99.90;;;;;;4904185;28;20055;-63
2022/11/29 05:06:22;;;;;;;31.67;16.42;;;6.90;99.90;;;;;;4922694;28;20051;-64
2022/11/29 05:09:11;;;;;;;53.33;18.70;;;6.80;99.90;;;;;;4922505;28;20047;-64
2022/11/29 05:12:12;;;;;;;31.33;15.75;;;6.80;99.90;;;;;;4924530;28;20414;-64
2022/11/29 05:15:06;;;;;;;35.53;18.08;;;6.80;99.90;;;;;;4851505;29;20083;-64
2022/11/29 05:17:38;;;;;;;33.38;15.98;;;6.80;99.90;;;;;;4938339;28;20510;-65
2022/11/29 05:20:10;;;;;;;33.13;16.23;;;6.80;99.90;;;;;;4928855;28;20078;-64
2022/11/29 05:23:20;;;;;;;26.67;14.35;;;6.80;99.90;;;;;;4913646;28;20312;-63
2022/11/29 05:26:25;;;;;;;30.13;15.50;;;6.70;99.90;;;;;;4896014;28;20051;-64
2022/11/29 05:29:20;;;;;;;24.60;14.15;;;6.70;99.90;;;;;;4914682;28;20122;-64
2022/11/29 05:32:20;;;;;;;27.33;14.32;;;6.70;99.90;;;;;;4929119;28;20526;-64
2022/11/29 05:35:36;;;;;;;24.27;14.68;;;6.70;99.90;;;;;;4927156;28;20083;-65
2022/11/29 05:38:19;;;;;;;21.27;12.57;;;6.70;99.90;;;;;;4921056;28;21071;-64
2022/11/29 05:40:52;;;;;;;29.48;14.60;;;6.70;99.90;;;;;;4907454;28;20044;-64
2022/11/29 05:43:53;;;;;;;22.65;13.00;;;6.70;99.90;;;;;;4922674;28;20054;-64
2022/11/29 05:46:35;;;;;;;29.73;14.00;;;6.70;99.90;;;;;;4926590;28;20051;-64
2022/11/29 05:49:29;;;;;;;22.75;13.25;;;6.60;99.90;;;;;;4923609;28;20102;-64
2022/11/29 05:52:14;;;;;;;;;;;6.60;99.90;;;;;;4925721;28;20051;-65
2022/11/29 05:54:56;;;;;;;29.95;13.57;;;6.60;99.90;;;;;;4925687;28;19931;-63
2022/11/29 05:57:21;;;;;;;23.42;13.20;;;6.60;99.90;;;;;;4922239;28;20070;-63
2022/11/29 05:59:49;;;;;;;34.50;14.30;;;6.60;99.90;;;;;;4920476;28;20387;-63
2022/11/29 06:02:35;;;;;;;25.48;13.95;;;6.60;99.90;;;;;;4920897;28;20054;-63
2022/11/29 06:05:24;;;;;;;30.55;14.02;;;6.60;99.90;;;;;;4916783;28;20173;-64
2022/11/29 06:08:44;;;;;;;28.55;14.10;;;6.60;99.90;;;;;;4923075;28;20051;-64
2022/11/29 06:11:14;;;;;;;27.55;14.10;;;6.60;99.90;;;;;;4886126;29;21211;-64
2022/11/29 06:14:16;;;;;;;28.70;14.20;;;6.50;99.90;;;;;;4913261;28;20055;-64
2022/11/29 06:16:55;;;;;;;28.73;14.13;;;6.50;99.90;;;;;;4923416;28;20049;-64
2022/11/29 06:19:41;;;;;;;25.00;13.15;;;6.50;99.90;;;;;;4905815;28;20138;-65
2022/11/29 06:22:23;;;;;;;27.80;13.43;;;6.50;99.90;;;;;;4922754;28;20929;-64
2022/11/29 06:25:03;;;;;;;25.55;13.93;;;6.50;99.90;;;;;;4923473;28;20053;-64
2022/11/29 06:27:57;;;;;;;26.02;13.18;;;6.50;99.90;;;;;;4904276;28;20506;-64
2022/11/29 06:30:35;;;;;;;25.08;12.68;;;6.40;99.90;;;;;;4919568;28;20190;-64
2022/11/29 06:33:01;;;;;;;26.17;12.90;;;6.40;99.90;;;;;;4896563;28;20059;-63
2022/11/29 06:35:33;;;;;;;22.63;12.27;;;6.40;99.90;;;;;;4904866;28;20418;-64
2022/11/29 06:38:22;;;;;;;22.73;12.73;;;6.40;99.90;;;;;;4903050;28;20718;-63
2022/11/29 06:40:49;;;;;;;21.48;11.48;;;6.40;99.90;;;;;;4919011;28;20059;-64
2022/11/29 06:43:16;;;;;;;30.02;12.32;;;6.40;99.90;;;;;;4922376;28;20047;-63
2022/11/29 06:45:51;;;;;;;21.95;11.95;;;6.40;99.90;;;;;;4874831;28;20528;-62
2022/11/29 06:48:28;;;;;;;24.65;11.95;;;6.40;99.90;;;;;;4916680;28;20043;-64
2022/11/29 06:51:12;;;;;;;25.95;12.60;;;6.40;99.90;;;;;;4904491;28;20429;-64
2022/11/29 06:54:02;;;;;;;28.20;12.75;;;6.40;99.90;;;;;;4905987;28;20047;-63
2022/11/29 06:56:56;;;;;;;22.58;12.10;;;6.40;99.90;;;;;;4914690;28;20082;-63
2022/11/29 06:59:38;;;;;;;23.40;12.88;;;6.40;99.90;;;;;;4903338;28;20151;-64
2022/11/29 07:02:12;;;;;;;21.90;11.40;;;6.40;99.90;;;;;;4908205;28;20051;-63
2022/11/29 07:05:08;;;;;;;27.08;12.90;;;6.50;99.90;;;;;;4904664;28;20110;-60
2022/11/29 07:07:35;;;;;;;29.52;12.05;;;6.50;99.90;;;;;;4906026;28;20499;-61
2022/11/29 07:10:03;;;;;;;28.08;13.77;;;6.50;99.90;;;;;;4908870;28;20129;-60
2022/11/29 07:12:29;;;;;;;26.13;12.35;;;6.50;99.90;;;;;;4909769;28;20510;-53
2022/11/29 07:14:55;;;;;;;25.70;12.85;;;6.50;99.90;;;;;;4927342;28;20103;-55
2022/11/29 07:17:24;;;;;;;26.42;12.63;;;6.50;99.90;;;;;;4931672;28;20039;-54
2022/11/29 07:20:29;;;;;;;22.70;12.27;;;6.50;99.90;;;;;;4931970;28;20837;-53
2022/11/29 07:23:23;;;;;;;28.55;12.30;;;6.50;99.90;;;;;;4932185;28;20047;-54
2022/11/29 07:26:31;;;;;;;27.00;12.38;;;6.60;99.90;;;;;;4932854;28;20055;-54
2022/11/29 07:29:02;;;;;;;22.13;11.40;;;6.60;99.90;;;;;;4932175;28;20046;-54
2022/11/29 07:31:46;;;;;;;24.40;12.25;;;6.60;99.90;;;;;;4934340;28;20153;-54
2022/11/29 07:34:21;;;;;;;22.50;12.25;;;6.50;99.90;;;;;;4930591;28;20133;-54
2022/11/29 07:37:20;;;;;;;29.85;13.43;;;6.60;99.90;;;;;;4931987;28;20493;-54
2022/11/29 07:40:22;;;;;;;24.50;13.10;;;6.60;99.90;;;;;;4932013;28;20956;-55
2022/11/29 07:43:06;;;;;;;29.65;13.30;;;6.50;99.90;;;;;;4933864;28;20051;-54
2022/11/29 07:45:35;;;;;;;25.98;12.65;;;6.60;99.90;;;;;;4933676;28;20047;-55
2022/11/29 07:48:01;;;;;;;29.92;12.35;;;6.50;99.90;;;;;;4935075;28;20062;-54
2022/11/29 07:50:29;;;;;;;27.38;12.57;;;6.50;99.90;;;;;;4937975;28;20078;-54
2022/11/29 07:52:55;;;;;;;26.42;13.18;;;6.60;99.90;;;;;;4913081;29;20044;-54
2022/11/29 07:55:24;;;;;;;29.80;12.18;;;6.50;99.90;;;;;;4912666;29;20113;-53
2022/11/29 07:57:50;;;;;;;25.92;12.85;;;6.50;99.90;;;;;;4912497;29;20078;-54
2022/11/29 08:00:17;;;;;;;34.53;13.40;;;6.50;99.90;;;;;;4913831;29;20055;-54
2022/11/29 08:02:44;;;;;;;28.10;12.85;;;6.60;99.90;;;;;;4912398;29;20078;-55
2022/11/29 08:05:11;;;;;;;27.05;12.57;;;6.60;99.90;;;;;;4909495;29;20055;-55
2022/11/29 08:07:38;;;;;;;32.63;13.38;;;6.60;99.90;;;;;;4911227;29;20063;-54
2022/11/29 08:10:08;;;;;;;26.17;13.38;;;6.60;99.90;;;;;;4912917;29;20047;-55
2022/11/29 08:12:34;;;;;;;27.00;13.00;;;6.60;99.90;;;;;;4895419;29;22082;-55
2022/11/29 08:15:00;;;;;;;26.45;12.90;;;6.60;99.90;;;;;;4909808;29;20059;-54
2022/11/29 08:17:26;;;;;;;32.25;13.95;;;6.60;99.90;;;;;;4914123;29;20061;-54
2022/11/29 08:19:52;;;;;;;26.40;13.30;;;6.70;99.90;;;;;;4912197;29;20142;-55
2022/11/29 08:22:18;;;;;;;29.45;12.93;;;6.80;99.90;;;;;;4912512;29;20102;-54
2022/11/29 08:24:44;;;;;;;32.90;13.60;;;6.70;99.90;;;;;;4911441;29;20059;-54
2022/11/29 08:27:10;;;;;;;26.05;12.88;;;6.70;99.90;;;;;;4911367;29;20538;-55
2022/11/29 08:29:35;;;;;;;31.55;12.88;;;6.80;99.90;;;;;;4911316;29;20058;-54
2022/11/29 08:32:01;;;;;;;24.90;13.38;;;6.70;99.90;;;;;;4909612;29;20066;-54
2022/11/29 08:34:27;;;;;;;30.38;13.00;;;6.80;99.90;;;;;;4912734;29;20051;-54
2022/11/29 08:36:55;;;;;;;25.77;12.18;;;6.80;99.90;;;;;;4897853;29;20056;-54
2022/11/29 08:39:21;;;;;;;23.80;12.15;;;6.80;99.90;;;;;;4911741;29;20438;-53
2022/11/29 08:41:48;;;;;;;31.52;12.95;;;6.90;99.90;;;;;;4912733;29;20129;-55
2022/11/29 08:44:14;;;;;;;29.42;12.45;;;6.90;99.90;;;;;;4910242;29;20051;-54
2022/11/29 08:49:24;;;;;;;36.30;13.23;;;6.80;99.90;;;;;;4910931;29;20477;-55
2022/11/29 08:51:52;;;;;;;26.23;12.40;;;6.90;99.90;;;;;;4914450;28;20135;-54
2022/11/29 08:54:17;;;;;;;30.08;12.57;;;7.00;99.90;;;;;;4909470;29;20398;-55
2022/11/29 08:56:43;;;;;;;28.75;12.45;;;7.00;99.90;;;;;;4899417;29;20055;-54
2022/11/29 08:59:09;;;;;;;31.25;12.77;;;7.00;99.90;;;;;;4911835;29;20048;-55
2022/11/29 09:01:35;;;;;;;26.33;11.95;;;7.10;99.90;;;;;;4915170;29;20497;-54
2022/11/29 09:04:05;;;;;;;22.40;11.45;;;7.10;99.90;;;;;;4909450;29;20051;-54
2022/11/29 09:06:37;;;;;;;29.90;12.05;;;7.10;99.90;;;;;;4910363;29;20044;-55
2022/11/29 09:09:04;;;;;;;29.33;11.32;;;7.20;99.90;;;;;;4910595;29;20052;-54
2022/11/29 09:11:31;;;;;;;30.23;11.95;;;7.20;99.90;;;;;;4912668;29;20052;-54
2022/11/29 09:14:00;;;;;;;29.38;12.10;;;7.20;99.90;;;;;;4910399;29;20051;-54
2022/11/29 09:16:29;;;;;;;25.33;11.32;;;7.30;99.90;;;;;;4908028;29;20127;-55
2022/11/29 09:18:56;;;;;;;33.08;12.15;;;7.30;99.90;;;;;;4914517;29;20529;-54
2022/11/29 09:21:27;;;;;;;33.30;12.07;;;7.40;99.90;;;;;;4914504;29;20127;-53
2022/11/29 09:23:57;;;;;;;35.60;11.63;;;7.40;99.90;;;;;;4909064;29;20085;-55
2022/11/29 09:26:26;;;;;;;27.60;11.38;;;7.40;99.90;;;;;;4910102;29;20159;-54
2022/11/29 09:28:52;;;;;;;25.23;10.93;;;7.50;99.90;;;;;;4911945;29;20048;-54
2022/11/29 09:31:19;;;;;;;30.88;10.98;;;7.50;99.90;;;;;;4911279;29;20056;-55
2022/11/29 09:33:45;;;;;;;26.10;10.75;;;7.50;99.90;;;;;;4894431;29;20056;-56
2022/11/29 09:36:12;;;;;;;31.10;11.18;;;7.50;99.90;;;;;;4914622;29;20055;-54
2022/11/29 09:38:38;;;;;;;27.92;10.98;;;7.60;99.90;;;;;;4903175;29;21174;-55
2022/11/29 09:41:27;;;;;;;27.90;11.45;;;7.60;99.90;;;;;;4917755;29;20051;-53
2022/11/29 09:44:30;;;;;;;28.80;11.35;;;7.70;99.90;;;;;;4899784;29;20182;-54
2022/11/29 09:47:20;;;;;;;33.45;11.65;;;7.70;99.90;;;;;;4917177;29;20048;-54
2022/11/29 09:50:18;;;;;;;29.20;10.82;;;7.70;99.90;;;;;;4893891;29;20047;-54
2022/11/29 09:53:06;;;;;;;35.10;10.80;;;7.80;99.90;;;;;;4826518;29;20052;-54
2022/11/29 09:55:41;;;;;;;29.08;10.88;;;7.80;99.90;;;;;;4885765;29;20507;-53
2022/11/29 09:58:14;;;;;;;25.63;10.93;;;7.80;99.90;;;;;;4907763;29;20174;-55
2022/11/29 10:00:49;;;;;;;27.95;10.80;;;7.90;99.90;;;;;;4890097;29;23726;-55
2022/11/29 10:03:30;;;;;;;31.05;11.75;;;7.90;99.90;;;;;;4908416;29;21326;-55
2022/11/29 10:06:02;;;;;;;31.80;11.63;;;7.90;99.90;;;;;;4907659;29;20189;-53
2022/11/29 10:09:01;;;;;;;32.33;12.73;;;8.00;99.90;;;;;;4907206;29;24469;-55
2022/11/29 10:11:37;;;;;;;29.60;11.88;;;8.10;99.90;;;;;;4909189;29;20322;-55
2022/11/29 10:14:16;;;;;;;33.50;11.75;;;8.10;99.90;;;;;;4915128;29;20044;-54
2022/11/29 10:17:10;;;;;;;32.70;13.23;;;8.20;99.90;;;;;;4911382;29;20127;-55
2022/11/29 10:19:37;;;;;;;;;;;8.30;99.90;;;;;;4913695;29;20495;-55
2022/11/29 10:22:36;;;;;;;31.02;12.07;;;8.30;99.90;;;;;;4910265;29;19922;-55
2022/11/29 10:25:05;;;;;;;35.78;12.45;;;8.40;99.90;;;;;;4903333;29;20063;-55
2022/11/29 10:27:30;;;;;;;30.08;12.77;;;8.40;99.90;;;;;;4904432;29;20067;-55
2022/11/29 10:29:59;;;;;;;34.63;12.80;;;8.50;99.90;;;;;;4908561;29;20078;-54
2022/11/29 10:32:30;;;;;;;31.63;13.10;;;8.60;99.90;;;;;;4905685;29;20130;-56
2022/11/29 10:34:59;;;;;;;32.40;13.38;;;8.60;99.90;;;;;;4907313;29;20187;-56
2022/11/29 10:37:31;;;;;;;35.35;14.10;;;8.70;99.90;;;;;;4903663;29;20106;-55
2022/11/29 10:40:03;;;;;;;28.13;13.93;;;8.70;99.90;;;;;;4905894;29;20199;-54
2022/11/29 10:42:48;;;;;;;32.00;14.67;;;8.80;99.90;;;;;;4905940;29;20168;-55
2022/11/29 10:45:39;;;;;;;35.78;14.57;;;8.90;99.90;;;;;;4893835;29;21161;-55
2022/11/29 10:48:14;;;;;;;27.90;15.63;;;8.90;99.90;;;;;;4908138;29;20050;-55
2022/11/29 10:50:43;;;;;;;28.77;15.40;;;9.00;99.90;;;;;;4909156;29;20056;-55
2022/11/29 10:53:30;;;;;;;30.90;15.30;;;9.00;99.90;;;;;;4908843;29;20154;-55
2022/11/29 10:56:34;;;;;;;26.40;14.13;;;9.00;99.90;;;;;;4891922;29;20063;-55
2022/11/29 10:59:07;;;;;;;25.42;14.57;;;9.00;99.90;;;;;;4875367;29;20048;-55
2022/11/29 11:01:40;;;;;;;26.92;14.50;;;9.10;99.90;;;;;;4914522;29;20048;-55
2022/11/29 11:04:09;;;;;;;26.13;15.60;;;9.00;99.90;;;;;;4907940;29;20507;-55
2022/11/29 11:06:43;;;;;;;27.75;15.10;;;9.10;99.90;;;;;;4909215;29;20510;-55
2022/11/29 11:09:30;;;;;;;22.23;14.38;;;9.10;99.90;;;;;;4910562;29;20146;-55
2022/11/29 11:12:24;;;;;;;26.27;14.23;;;9.20;99.90;;;;;;4911427;29;20040;-56
2022/11/29 11:14:50;;;;;;;22.85;12.68;;;9.10;99.90;;;;;;4891821;29;20055;-54
2022/11/29 11:17:31;;;;;;;23.08;13.48;;;9.20;99.90;;;;;;4912565;29;20700;-55
2022/11/29 11:20:00;;;;;;;19.60;12.77;;;9.20;99.90;;;;;;4909464;29;20043;-54
2022/11/29 11:22:27;;;;;;;20.95;12.70;;;9.20;99.90;;;;;;4910920;29;20190;-55
2022/11/29 11:25:05;;;;;;;21.70;12.45;;;9.20;99.90;;;;;;4911314;29;20058;-55
2022/11/29 11:27:40;;;;;;;22.98;12.63;;;9.20;99.90;;;;;;4910446;29;20052;-55
2022/11/29 11:30:17;;;;;;;23.48;12.02;;;9.20;99.90;;;;;;4911731;29;20138;-54
2022/11/29 11:33:07;;;;;;;21.15;11.50;;;9.20;99.90;;;;;;4911828;29;20149;-56
2022/11/29 11:35:34;;;;;;;18.48;11.35;;;9.20;99.90;;;;;;4908831;29;20949;-55
2022/11/29 11:37:59;;;;;;;19.55;12.25;;;9.30;99.90;;;;;;4910236;29;20138;-54
2022/11/29 11:40:29;;;;;;;19.65;12.10;;;9.20;99.90;;;;;;4893184;29;20046;-55
2022/11/29 11:43:00;;;;;;;20.40;11.20;;;9.20;99.90;;;;;;4910701;29;20452;-56
2022/11/29 11:45:32;;;;;;;18.27;10.38;;;9.20;99.90;;;;;;4911015;29;20460;-56
2022/11/29 11:48:18;;;;;;;19.03;11.17;;;9.20;99.90;;;;;;4912943;29;20035;-55
2022/11/29 11:50:50;;;;;;;19.08;10.85;;;9.20;99.90;;;;;;4906839;28;21709;-55
2022/11/29 11:53:35;;;;;;;13.85;9.57;;;9.20;99.90;;;;;;4907360;29;20055;-55
2022/11/29 11:56:09;;;;;;;19.25;10.00;;;9.10;99.90;;;;;;4909647;29;20059;-56
2022/11/29 11:58:48;;;;;;;17.52;10.65;;;9.10;99.90;;;;;;4910249;29;20162;-55
2022/11/29 12:01:24;;;;;;;15.93;10.07;;;9.10;99.90;;;;;;4889823;29;21137;-53
2022/11/29 12:04:02;;;;;;;17.15;10.05;;;9.10;99.90;;;;;;4903263;29;20820;-55
2022/11/29 12:06:34;;;;;;;15.00;9.05;;;9.20;99.90;;;;;;4904947;29;20769;-54
2022/11/29 12:09:15;;;;;;;14.17;9.20;;;9.20;99.90;;;;;;4906478;29;20048;-54
2022/11/29 12:12:02;;;;;;;13.05;9.35;;;9.20;99.90;;;;;;4911237;29;20181;-54
2022/11/29 12:14:56;;;;;;;14.10;9.40;;;9.20;99.90;;;;;;4904712;29;23033;-55
2022/11/29 12:17:50;;;;;;;11.00;8.27;;;9.10;99.90;;;;;;4903646;29;20074;-54
2022/11/29 12:20:29;;;;;;;9.95;8.25;;;9.10;99.90;;;;;;4878107;29;20081;-54
2022/11/29 12:23:17;;;;;;;10.82;8.27;;;9.20;99.90;;;;;;4908374;29;22030;-55
2022/11/29 12:26:03;;;;;;;11.43;9.43;;;9.10;99.90;;;;;;4906141;29;20107;-55
2022/11/29 12:28:33;;;;;;;10.65;7.97;;;9.10;99.90;;;;;;4909060;29;20162;-54
2022/11/29 12:31:12;;;;;;;12.68;8.93;;;9.10;99.90;;;;;;4906483;29;20077;-55
2022/11/29 12:33:50;;;;;;;13.60;8.77;;;9.00;99.90;;;;;;4908292;29;20127;-55
2022/11/29 12:36:30;;;;;;;11.80;8.93;;;9.00;99.90;;;;;;4905849;29;20055;-55
2022/11/29 12:38:56;;;;;;;11.93;9.70;;;9.00;99.90;;;;;;4912157;29;20047;-55
2022/11/29 12:41:49;;;;;;;12.75;9.50;;;8.90;99.90;;;;;;4916550;29;20443;-56
2022/11/29 12:44:36;;;;;;;11.98;9.38;;;8.90;99.90;;;;;;4906595;29;20115;-56
2022/11/29 12:47:27;;;;;;;12.07;9.18;;;8.90;99.90;;;;;;4909284;29;21755;-56
2022/11/29 12:50:09;;;;;;;12.35;9.98;;;8.80;99.90;;;;;;4860533;29;20098;-55
2022/11/29 12:53:04;;;;;;;11.53;9.40;;;8.80;99.90;;;;;;4905163;29;20055;-55
2022/11/29 12:55:55;;;;;;;13.00;9.93;;;8.80;99.90;;;;;;4894662;29;20166;-55
2022/11/29 12:58:39;;;;;;;13.07;9.25;;;8.60;99.90;;;;;;4912408;29;20048;-55
2022/11/29 13:01:28;;;;;;;11.27;9.77;;;8.70;99.90;;;;;;4914006;29;20100;-56
2022/11/29 13:03:54;;;;;;;11.75;9.55;;;8.70;99.90;;;;;;4906858;29;20511;-55
2022/11/29 13:06:38;;;;;;;9.73;8.43;;;8.60;99.90;;;;;;4907999;29;20173;-56
2022/11/29 13:09:29;;;;;;;13.40;8.80;;;8.60;99.90;;;;;;4904241;29;20495;-55
2022/11/29 13:12:03;;;;;;;13.35;9.98;;;8.50;99.90;;;;;;4907615;29;20117;-56
2022/11/29 13:14:47;;;;;;;12.82;10.57;;;8.50;99.90;;;;;;4905023;29;20142;-55
2022/11/29 13:17:25;;;;;;;12.93;9.93;;;8.50;99.90;;;;;;4894948;29;21824;-56
2022/11/29 13:20:12;;;;;;;17.10;10.68;;;8.40;99.90;;;;;;4898140;29;20047;-55
2022/11/29 13:22:50;;;;;;;12.30;11.00;;;8.40;99.90;;;;;;4907203;29;20043;-56
2022/11/29 13:25:29;;;;;;;14.88;10.52;;;8.40;99.90;;;;;;4901258;29;20488;-57
2022/11/29 13:28:22;;;;;;;15.05;10.77;;;8.30;99.90;;;;;;4898060;29;20122;-55
2022/11/29 13:30:49;;;;;;;14.88;11.32;;;8.30;99.90;;;;;;4901148;29;20116;-56
2022/11/29 13:33:44;;;;;;;18.30;11.00;;;8.30;99.90;;;;;;4904597;29;20055;-56